createdAt,value
2018-09-25T00:00:42.893Z,79.90
2018-09-25T00:03:17.438Z,82.50
2018-09-25T00:05:51.942Z,78.00
2018-09-25T00:08:26.342Z,81.90
2018-09-25T00:11:00.754Z,79.30
2018-09-25T00:13:36.491Z,81.60
2018-09-25T00:16:11.061Z,84.40
2018-09-25T00:18:46.889Z,87.40
2018-09-25T00:21:21.233Z,89.00
2018-09-25T00:23:55.613Z,90.90
2018-09-25T00:26:30.438Z,90.60
2018-09-25T00:29:04.927Z,90.90
2018-09-25T00:31:39.478Z,90.40
2018-09-25T00:34:13.962Z,87.10
2018-09-25T00:36:48.436Z,85.20
2018-09-25T00:39:22.987Z,88.50
2018-09-25T00:41:58.523Z,90.00
2018-09-25T00:44:32.911Z,90.70
2018-09-25T00:47:07.986Z,90.30
2018-09-25T00:49:42.317Z,85.70
2018-09-25T00:52:16.885Z,84.20
2018-09-25T00:54:51.410Z,82.00
2018-09-25T00:57:26.804Z,77.40
2018-09-25T01:00:01.339Z,77.00
2018-09-25T01:02:37.136Z,79.30
2018-09-25T01:05:11.741Z,80.60
2018-09-25T01:07:46.175Z,84.20
2018-09-25T01:10:20.590Z,84.80
2018-09-25T01:12:57.671Z,87.70
2018-09-25T01:15:32.030Z,88.00
2018-09-25T01:18:06.539Z,87.70
2018-09-25T01:20:41.226Z,89.40
2018-09-25T01:23:16.450Z,87.80
2018-09-25T01:25:50.919Z,88.90
2018-09-25T01:28:25.294Z,90.20
2018-09-25T01:31:00.057Z,90.60
2018-09-25T01:33:34.664Z,90.90
2018-09-25T01:36:09.711Z,90.00
2018-09-25T01:38:44.152Z,84.90
2018-09-25T01:41:18.691Z,79.50
2018-09-25T01:43:54.158Z,79.50
2018-09-25T01:46:28.701Z,82.60
2018-09-25T01:49:04.071Z,86.50
2018-09-25T01:51:40.193Z,86.00
2018-09-25T01:54:14.717Z,89.50
2018-09-25T01:56:49.193Z,88.60
2018-09-25T01:59:23.933Z,88.20
2018-09-25T02:01:59.379Z,79.40
2018-09-25T02:04:38.575Z,79.90
2018-09-25T02:07:12.978Z,81.90
2018-09-25T02:09:47.520Z,85.30
2018-09-25T02:12:21.908Z,86.50
2018-09-25T02:14:56.417Z,89.10
2018-09-25T02:17:30.784Z,85.90
2018-09-25T02:20:05.931Z,87.10
2018-09-25T02:22:40.950Z,86.50
2018-09-25T02:25:15.501Z,86.60
2018-09-25T02:27:50.288Z,86.50
2018-09-25T02:30:24.910Z,88.50
2018-09-25T02:32:59.384Z,88.60
2018-09-25T02:35:33.842Z,89.00
2018-09-25T02:38:08.336Z,88.70
2018-09-25T02:40:42.810Z,83.70
2018-09-25T02:43:18.778Z,85.50
2018-09-25T02:45:53.646Z,87.50
2018-09-25T02:48:28.239Z,87.60
2018-09-25T02:51:03.170Z,89.90
2018-09-25T02:53:37.691Z,88.40
2018-09-25T02:56:12.302Z,86.50
2018-09-25T02:58:46.800Z,76.20
2018-09-25T03:01:21.210Z,75.20
2018-09-25T03:03:56.728Z,79.00
2018-09-25T03:06:31.232Z,78.90
2018-09-25T03:09:05.740Z,76.20
2018-09-25T03:11:41.198Z,80.20
2018-09-25T03:14:15.565Z,83.70
2018-09-25T03:16:50.133Z,84.10
2018-09-25T03:19:25.368Z,85.60
2018-09-25T03:22:02.554Z,87.00
2018-09-25T03:24:37.111Z,90.40
2018-09-25T03:27:11.719Z,90.90
2018-09-25T03:29:46.870Z,91.10
2018-09-25T03:32:23.533Z,90.30
2018-09-25T03:34:57.937Z,90.80
2018-09-25T03:37:32.426Z,87.60
2018-09-25T03:40:06.827Z,85.10
2018-09-25T03:42:41.525Z,81.60
2018-09-25T03:45:16.086Z,78.80
2018-09-25T03:47:50.740Z,78.80
2018-09-25T03:50:25.117Z,80.70
2018-09-25T03:52:59.687Z,78.40
2018-09-25T03:55:34.345Z,78.80
2018-09-25T03:58:09.068Z,81.60
2018-09-25T04:00:43.462Z,81.80
2018-09-25T04:03:18.000Z,82.50
2018-09-25T04:05:52.476Z,82.50
2018-09-25T04:08:26.856Z,82.70
2018-09-25T04:11:01.331Z,87.10
2018-09-25T04:13:35.684Z,87.30
2018-09-25T04:16:10.100Z,82.30
2018-09-25T04:18:44.480Z,80.90
2018-09-25T04:21:18.907Z,83.30
2018-09-25T04:23:53.272Z,86.30
2018-09-25T04:26:27.846Z,86.70
2018-09-25T04:29:02.382Z,84.90
2018-09-25T04:31:37.814Z,85.90
2018-09-25T04:34:12.272Z,89.50
2018-09-25T04:36:46.630Z,85.90
2018-09-25T04:39:21.112Z,82.30
2018-09-25T04:41:55.550Z,80.80
2018-09-25T04:44:29.924Z,83.40
2018-09-25T04:47:04.440Z,82.80
2018-09-25T04:49:38.941Z,76.20
2018-09-25T04:52:13.382Z,76.60
2018-09-25T04:54:48.033Z,78.10
2018-09-25T04:57:23.092Z,80.00
2018-09-25T04:59:57.970Z,85.00
2018-09-25T05:02:32.680Z,87.40
2018-09-25T05:05:07.723Z,85.90
2018-09-25T05:07:42.505Z,82.90
2018-09-25T05:10:17.141Z,83.70
2018-09-25T05:12:52.671Z,84.80
2018-09-25T05:15:27.199Z,86.20
2018-09-25T05:18:01.728Z,87.90
2018-09-25T05:20:36.205Z,86.10
2018-09-25T05:23:11.867Z,89.60
2018-09-25T05:25:46.235Z,88.80
2018-09-25T05:28:20.623Z,82.80
2018-09-25T05:30:55.176Z,79.00
2018-09-25T05:33:31.646Z,81.80
2018-09-25T05:36:06.550Z,81.60
2018-09-25T05:38:41.596Z,79.30
2018-09-25T05:41:16.085Z,80.50
2018-09-25T05:43:50.586Z,78.30
2018-09-25T05:46:25.133Z,79.70
2018-09-25T05:48:59.623Z,83.40
2018-09-25T05:51:34.194Z,85.90
2018-09-25T05:54:08.575Z,89.90
2018-09-25T05:56:43.073Z,90.20
2018-09-25T05:59:17.599Z,87.90
2018-09-25T06:01:55.214Z,85.10
2018-09-25T06:04:29.725Z,86.00
2018-09-25T06:07:04.403Z,86.20
2018-09-25T06:09:38.968Z,84.50
2018-09-25T06:12:14.401Z,82.50
2018-09-25T06:14:48.811Z,80.20
2018-09-25T06:17:24.415Z,80.80
2018-09-25T06:19:58.877Z,77.40
2018-09-25T06:22:33.375Z,75.90
2018-09-25T06:25:07.955Z,75.50
2018-09-25T06:27:42.614Z,73.40
2018-09-25T06:30:17.081Z,73.20
2018-09-25T06:32:52.275Z,75.90
2018-09-25T06:35:27.814Z,77.10
2018-09-25T06:38:02.344Z,74.90
2018-09-25T06:40:36.838Z,73.50
2018-09-25T06:43:11.344Z,76.00
2018-09-25T06:45:45.734Z,74.10
2018-09-25T06:48:20.244Z,75.30
2018-09-25T06:50:54.634Z,74.60
2018-09-25T06:53:29.205Z,74.20
2018-09-25T06:56:03.706Z,75.10
2018-09-25T06:58:38.280Z,73.70
2018-09-25T07:01:12.775Z,73.80
2018-09-25T07:03:47.268Z,73.50
2018-09-25T07:06:21.821Z,74.40
2018-09-25T07:08:56.341Z,75.70
2018-09-25T07:11:30.809Z,76.00
2018-09-25T07:14:05.167Z,77.10
2018-09-25T07:16:39.610Z,77.60
2018-09-25T07:19:13.956Z,79.00
2018-09-25T07:21:49.646Z,77.30
2018-09-25T07:24:24.240Z,78.30
2018-09-25T07:26:58.685Z,78.70
2018-09-25T07:29:33.207Z,77.70
2018-09-25T07:32:07.746Z,76.20
2018-09-25T07:34:42.246Z,75.30
2018-09-25T07:37:16.642Z,71.30
2018-09-25T07:39:51.116Z,70.30
2018-09-25T07:42:30.349Z,70.10
2018-09-25T07:45:05.219Z,66.20
2018-09-25T07:47:39.633Z,66.00
2018-09-25T07:50:14.996Z,66.80
2018-09-25T07:52:49.760Z,64.90
2018-09-25T07:55:25.986Z,63.80
2018-09-25T07:58:00.354Z,61.50
2018-09-25T08:00:34.846Z,59.30
2018-09-25T08:03:09.624Z,59.10
2018-09-25T08:05:44.176Z,59.40
2018-09-25T08:08:18.697Z,57.20
2018-09-25T08:10:53.097Z,56.30
2018-09-25T08:13:27.630Z,56.00
2018-09-25T08:16:01.974Z,55.90
2018-09-25T08:18:37.818Z,55.80
2018-09-25T08:21:12.419Z,52.00
2018-09-25T08:23:47.049Z,51.50
2018-09-25T08:26:21.437Z,51.30
2018-09-25T08:28:55.933Z,50.80
2018-09-25T08:31:30.525Z,48.30
2018-09-25T08:34:05.013Z,46.10
2018-09-25T08:36:39.473Z,46.80
2018-09-25T08:39:15.072Z,46.50
2018-09-25T08:41:49.620Z,44.90
2018-09-25T08:44:23.992Z,44.40
2018-09-25T08:46:58.345Z,45.80
2018-09-25T08:49:32.829Z,45.60
2018-09-25T08:52:09.304Z,45.20
2018-09-25T08:54:44.637Z,42.60
2018-09-25T08:57:19.179Z,42.30
2018-09-25T08:59:53.954Z,40.30
2018-09-25T09:02:30.436Z,37.40
2018-09-25T09:05:05.060Z,39.00
2018-09-25T09:07:39.496Z,39.10
2018-09-25T09:10:17.436Z,39.40
2018-09-25T09:12:52.998Z,38.20
2018-09-25T09:15:29.748Z,34.50
2018-09-25T09:18:04.080Z,34.20
2018-09-25T09:20:39.596Z,34.20
2018-09-25T09:23:16.514Z,34.00
2018-09-25T09:25:50.998Z,31.90
2018-09-25T09:28:25.482Z,31.50
2018-09-25T09:30:59.851Z,30.00
2018-09-25T09:33:34.410Z,29.70
2018-09-25T09:36:09.131Z,29.70
2018-09-25T09:38:44.515Z,29.70
2018-09-25T09:41:18.983Z,30.00
2018-09-25T09:43:53.340Z,28.80
2018-09-25T09:46:28.225Z,29.60
2018-09-25T09:49:02.893Z,29.00
2018-09-25T09:51:37.382Z,25.30
2018-09-25T09:54:11.873Z,27.80
2018-09-25T09:56:46.247Z,26.50
2018-09-25T09:59:20.716Z,27.20
2018-09-25T10:01:55.199Z,25.00
2018-09-25T10:04:29.593Z,23.80
2018-09-25T10:07:04.138Z,24.10
2018-09-25T10:09:38.477Z,23.50
2018-09-25T10:12:13.069Z,22.70
2018-09-25T10:14:48.024Z,23.30
2018-09-25T10:17:23.510Z,23.00
2018-09-25T10:19:57.951Z,22.00
2018-09-25T10:22:32.673Z,21.90
2018-09-25T10:25:07.721Z,21.20
2018-09-25T10:27:42.161Z,19.70
2018-09-25T10:30:17.983Z,19.80
2018-09-25T10:32:52.450Z,19.50
2018-09-25T10:35:28.629Z,17.10
2018-09-25T10:38:03.184Z,17.20
2018-09-25T10:40:39.665Z,16.90
2018-09-25T10:43:14.284Z,17.00
2018-09-25T10:45:50.153Z,17.00
2018-09-25T10:48:24.816Z,16.80
2018-09-25T10:50:59.270Z,17.20
2018-09-25T10:53:33.817Z,16.60
2018-09-25T10:56:08.443Z,15.20
2018-09-25T10:58:42.796Z,16.50
2018-09-25T11:01:17.335Z,17.10
2018-09-25T11:03:58.738Z,14.80
2018-09-25T11:06:33.253Z,15.30
2018-09-25T11:09:07.713Z,15.90
2018-09-25T11:11:43.404Z,15.30
2018-09-25T11:14:17.841Z,14.60
2018-09-25T11:16:52.442Z,15.10
2018-09-25T11:19:26.970Z,14.60
2018-09-25T11:22:01.539Z,15.70
2018-09-25T11:24:35.964Z,13.40
2018-09-25T11:27:10.372Z,15.20
2018-09-25T11:29:44.834Z,14.50
2018-09-25T11:32:20.964Z,14.30
2018-09-25T11:34:55.511Z,13.70
2018-09-25T11:37:30.073Z,14.40
2018-09-25T11:40:04.617Z,13.80
2018-09-25T11:42:39.284Z,13.80
2018-09-25T11:45:13.701Z,13.60
2018-09-25T11:47:48.463Z,12.80
2018-09-25T11:50:24.535Z,11.70
2018-09-25T11:53:01.135Z,12.90
2018-09-25T11:55:35.811Z,13.90
2018-09-25T11:58:10.491Z,11.00
2018-09-25T12:00:45.117Z,10.50
2018-09-25T12:03:20.933Z,11.50
2018-09-25T12:05:59.186Z,11.60
2018-09-25T12:08:33.615Z,11.70
2018-09-25T12:11:08.270Z,11.30
2018-09-25T12:13:42.947Z,10.70
2018-09-25T12:16:17.423Z,12.50
2018-09-25T12:18:51.881Z,10.60
2018-09-25T12:21:26.367Z,10.10
2018-09-25T12:24:00.951Z,8.40
2018-09-25T12:26:35.740Z,8.00
2018-09-25T12:29:10.269Z,8.80
2018-09-25T12:31:45.210Z,10.50
2018-09-25T12:34:19.705Z,10.90
2018-09-25T12:36:54.211Z,10.00
2018-09-25T12:39:28.793Z,10.70
2018-09-25T12:42:03.624Z,10.40
2018-09-25T12:44:38.175Z,10.80
2018-09-25T12:47:13.327Z,10.00
2018-09-25T12:49:47.903Z,10.20
2018-09-25T12:52:22.968Z,9.10
2018-09-25T12:54:57.474Z,9.90
2018-09-25T12:57:32.094Z,10.20
2018-09-25T13:00:06.524Z,9.40
2018-09-25T13:02:41.247Z,10.40
2018-09-25T13:05:15.764Z,10.20
2018-09-25T13:07:50.294Z,9.50
2018-09-25T13:10:24.608Z,9.50
2018-09-25T13:12:59.211Z,7.40
2018-09-25T13:15:33.742Z,8.80
2018-09-25T13:18:08.332Z,8.50
2018-09-25T13:20:43.560Z,9.50
2018-09-25T13:23:18.070Z,9.40
2018-09-25T13:25:54.490Z,9.80
2018-09-25T13:28:28.853Z,9.40
2018-09-25T13:31:03.491Z,9.00
2018-09-25T13:33:37.857Z,8.40
2018-09-25T13:36:12.349Z,7.90
2018-09-25T13:38:46.921Z,7.00
2018-09-25T13:41:22.806Z,7.30
2018-09-25T13:43:57.648Z,5.40
2018-09-25T13:46:32.255Z,5.80
2018-09-25T13:49:06.842Z,4.80
2018-09-25T13:51:41.424Z,3.10
2018-09-25T13:54:16.012Z,2.50
2018-09-25T13:56:50.483Z,1.60
2018-09-25T13:59:24.975Z,1.00
2018-09-25T14:01:59.537Z,1.00
2018-09-25T14:04:33.943Z,1.20
2018-09-25T14:07:08.322Z,1.00
2018-09-25T14:09:42.682Z,1.00
2018-09-25T14:12:19.129Z,1.00
2018-09-25T14:14:53.643Z,1.00
2018-09-25T14:17:28.898Z,1.00
2018-09-25T14:20:03.292Z,1.00
2018-09-25T14:22:37.968Z,1.00
2018-09-25T14:25:12.397Z,1.00
2018-09-25T14:27:46.982Z,1.00
2018-09-25T14:30:21.334Z,1.00
2018-09-25T14:32:57.901Z,1.00
2018-09-25T14:35:32.471Z,1.00
2018-09-25T14:38:06.864Z,1.00
2018-09-25T14:40:41.447Z,1.00
2018-09-25T14:43:16.127Z,1.00
2018-09-25T14:45:50.505Z,1.00
2018-09-25T14:48:24.869Z,1.00
2018-09-25T14:51:00.845Z,1.00
2018-09-25T14:53:35.407Z,1.00
2018-09-25T14:56:10.302Z,1.00
2018-09-25T14:58:44.704Z,1.00
2018-09-25T15:01:19.168Z,1.00
2018-09-25T15:03:53.855Z,1.00
2018-09-25T15:06:28.400Z,1.00
2018-09-25T15:09:02.765Z,1.00
2018-09-25T15:11:37.336Z,1.00
2018-09-25T15:14:11.872Z,1.00
2018-09-25T15:16:46.276Z,1.00
2018-09-25T15:19:20.643Z,1.00
2018-09-25T15:21:56.435Z,1.00
2018-09-25T15:24:30.510Z,1.00
2018-09-25T15:27:05.047Z,1.00
2018-09-25T15:29:39.717Z,1.00
2018-09-25T15:32:15.885Z,1.00
2018-09-25T15:34:50.971Z,1.00
2018-09-25T15:37:25.396Z,1.00
2018-09-25T15:39:59.777Z,1.00
2018-09-25T15:42:34.430Z,1.00
2018-09-25T15:45:08.802Z,2.00
2018-09-25T15:47:43.311Z,3.50
2018-09-25T15:50:18.091Z,2.60
2018-09-25T15:52:52.706Z,3.60
2018-09-25T15:55:27.441Z,4.30
2018-09-25T15:58:02.851Z,6.50
2018-09-25T16:00:37.507Z,6.40
2018-09-25T16:03:12.391Z,6.20
2018-09-25T16:05:47.048Z,7.20
2018-09-25T16:08:22.769Z,6.10
2018-09-25T16:10:57.366Z,6.10
2018-09-25T16:13:31.956Z,8.20
2018-09-25T16:16:06.452Z,7.20
2018-09-25T16:18:40.873Z,6.60
2018-09-25T16:21:15.521Z,8.20
2018-09-25T16:23:50.764Z,7.50
2018-09-25T16:26:25.261Z,7.60
2018-09-25T16:28:59.910Z,7.40
2018-09-25T16:31:36.873Z,7.80
2018-09-25T16:34:11.283Z,8.50
2018-09-25T16:36:45.919Z,8.10
2018-09-25T16:39:20.978Z,7.80
2018-09-25T16:41:55.869Z,7.50
2018-09-25T16:44:30.546Z,7.50
2018-09-25T16:47:05.127Z,8.40
2018-09-25T16:49:39.695Z,8.80
2018-09-25T16:52:14.237Z,8.70
2018-09-25T16:54:48.856Z,8.70
2018-09-25T16:57:23.368Z,9.30
2018-09-25T16:59:57.995Z,8.80
2018-09-25T17:02:33.669Z,8.80
2018-09-25T17:05:08.416Z,9.30
2018-09-25T17:07:43.085Z,10.70
2018-09-25T17:10:18.976Z,8.70
2018-09-25T17:12:53.759Z,9.00
2018-09-25T17:15:29.663Z,10.40
2018-09-25T17:18:04.465Z,10.50
2018-09-25T17:20:42.591Z,10.00
2018-09-25T17:23:19.255Z,9.80
2018-09-25T17:25:55.970Z,10.00
2018-09-25T17:28:32.270Z,10.30
2018-09-25T17:31:09.187Z,10.10
2018-09-25T17:33:44.240Z,11.80
2018-09-25T17:36:19.041Z,10.50
2018-09-25T17:38:54.649Z,12.10
2018-09-25T17:41:30.871Z,13.00
2018-09-25T17:44:05.612Z,13.00
2018-09-25T17:46:41.605Z,12.60
2018-09-25T17:49:16.714Z,13.70
2018-09-25T17:51:51.512Z,12.60
2018-09-25T17:54:26.320Z,12.60
2018-09-25T17:57:03.800Z,12.20
2018-09-25T17:59:38.612Z,12.50
2018-09-25T18:02:13.550Z,12.40
2018-09-25T18:04:48.004Z,12.30
2018-09-25T18:07:22.509Z,13.30
2018-09-25T18:09:57.236Z,14.90
2018-09-25T18:12:32.623Z,13.20
2018-09-25T18:15:09.088Z,14.40
2018-09-25T18:17:43.801Z,13.70
2018-09-25T18:20:19.373Z,14.60
2018-09-25T18:22:56.410Z,14.70
2018-09-25T18:25:32.863Z,14.30
2018-09-25T18:28:07.609Z,14.90
2018-09-25T18:30:42.916Z,15.00
2018-09-25T18:33:18.354Z,16.60
2018-09-25T18:35:53.014Z,17.80
2018-09-25T18:38:27.422Z,17.70
2018-09-25T18:41:02.043Z,19.60
2018-09-25T18:43:36.540Z,21.20
2018-09-25T18:46:12.077Z,23.40
2018-09-25T18:48:46.814Z,24.40
2018-09-25T18:51:21.643Z,25.40
2018-09-25T18:53:56.157Z,26.40
2018-09-25T18:56:30.756Z,27.50
2018-09-25T18:59:05.297Z,28.80
2018-09-25T19:01:41.776Z,29.50
2018-09-25T19:04:17.011Z,30.90
2018-09-25T19:06:51.714Z,32.50
2018-09-25T19:09:26.685Z,34.30
2018-09-25T19:12:03.646Z,33.60
2018-09-25T19:14:38.276Z,34.20
2018-09-25T19:17:13.461Z,33.90
2018-09-25T19:19:48.752Z,32.80
2018-09-25T19:22:25.650Z,32.60
2018-09-25T19:25:00.223Z,33.80
2018-09-25T19:27:34.775Z,35.00
2018-09-25T19:30:12.704Z,36.30
2018-09-25T19:32:54.406Z,37.00
2018-09-25T19:35:29.732Z,37.90
2018-09-25T19:38:04.246Z,37.50
2018-09-25T19:40:38.660Z,37.20
2018-09-25T19:43:13.422Z,38.70
2018-09-25T19:45:48.382Z,39.80
2018-09-25T19:48:22.842Z,39.50
2018-09-25T19:50:59.035Z,40.90
2018-09-25T19:53:33.594Z,40.20
2018-09-25T19:56:08.240Z,41.10
2018-09-25T19:58:42.967Z,42.00
2018-09-25T20:01:17.738Z,43.70
2018-09-25T20:03:53.352Z,43.10
2018-09-25T20:06:28.171Z,41.80
2018-09-25T20:12:33.367Z,43.40
2018-09-25T20:15:07.881Z,44.40
2018-09-25T20:20:24.078Z,45.10
2018-09-25T20:22:58.727Z,44.40
2018-09-25T20:25:33.265Z,44.60
2018-09-25T20:28:08.330Z,45.50
2018-09-25T20:30:42.834Z,46.30
2018-09-25T20:33:26.212Z,47.80
2018-09-25T20:36:00.677Z,48.90
2018-09-25T20:38:35.152Z,49.10
2018-09-25T20:41:10.579Z,48.00
2018-09-25T20:43:46.456Z,47.10
2018-09-25T20:46:21.434Z,47.20
2018-09-25T20:48:56.230Z,49.60
2018-09-25T20:51:31.522Z,49.50
2018-09-25T20:54:07.595Z,49.80
2018-09-25T20:56:43.966Z,50.40
2018-09-25T20:59:18.756Z,49.50
2018-09-25T21:01:53.483Z,48.10
2018-09-25T21:04:36.805Z,47.40
2018-09-25T21:07:11.187Z,48.30
2018-09-25T21:50:12.828Z,54.10
2018-09-25T21:52:51.731Z,56.20
2018-09-25T21:55:26.934Z,59.30
2018-09-25T21:58:01.898Z,57.90
2018-09-25T22:00:37.456Z,54.80
2018-09-25T22:03:14.226Z,54.10
2018-09-25T22:05:49.840Z,55.60
2018-09-25T22:08:25.414Z,55.80
2018-09-25T22:11:01.107Z,56.90
2018-09-25T22:13:35.629Z,56.40
2018-09-25T22:16:10.010Z,57.50
2018-09-25T22:18:46.228Z,57.10
2018-09-25T22:21:21.413Z,59.30
2018-09-25T22:23:56.657Z,58.60
2018-09-25T22:26:30.999Z,57.60
2018-09-25T22:29:05.326Z,56.60
2018-09-25T22:31:41.235Z,58.80
2018-09-25T22:34:15.770Z,57.50
2018-09-25T22:36:50.398Z,59.20
2018-09-25T22:39:24.891Z,58.30
2018-09-25T22:41:59.434Z,60.50
2018-09-25T22:44:33.832Z,60.20
2018-09-25T22:47:08.716Z,62.90
2018-09-25T22:49:43.074Z,64.80
2018-09-25T22:52:17.733Z,62.70
2018-09-25T22:54:52.237Z,61.20
2018-09-25T22:57:27.246Z,60.90
2018-09-25T23:00:02.695Z,61.80
2018-09-25T23:02:37.308Z,60.50
2018-09-25T23:05:11.826Z,61.30
2018-09-25T23:07:46.378Z,54.80
2018-09-25T23:10:20.799Z,53.40
2018-09-25T23:12:59.034Z,55.80
2018-09-25T23:15:33.660Z,57.60
2018-09-25T23:18:09.107Z,59.50
2018-09-25T23:20:43.616Z,60.10
2018-09-25T23:23:18.832Z,60.10
2018-09-25T23:25:53.227Z,60.30
2018-09-25T23:28:27.606Z,62.50
2018-09-25T23:31:02.691Z,62.30
2018-09-25T23:33:37.244Z,63.30
2018-09-25T23:36:11.611Z,66.60
2018-09-25T23:38:46.187Z,65.30
2018-09-25T23:43:22.648Z,64.00
2018-09-25T23:45:56.866Z,62.90
2018-09-25T23:50:32.439Z,58.70
2018-09-25T23:53:41.026Z,59.20
2018-09-25T23:56:31.278Z,60.10
2018-09-25T23:59:20.082Z,64.90
